createdAt,value
2019-02-26T00:00:42.160Z,84.55
2019-02-26T00:01:38.674Z,84.26
2019-02-26T00:02:38.667Z,84.45
2019-02-26T00:03:38.646Z,84.36
2019-02-26T00:04:39.335Z,84.17
2019-02-26T00:05:38.617Z,84.17
2019-02-26T00:06:38.605Z,84.26
2019-02-26T00:07:38.589Z,84.45
2019-02-26T00:08:38.328Z,85.21
2019-02-26T00:09:38.597Z,85.11
2019-02-26T00:10:41.348Z,85.11
2019-02-26T00:11:42.245Z,84.74
2019-02-26T00:12:38.522Z,84.92
2019-02-26T00:13:39.020Z,84.92
2019-02-26T00:14:38.500Z,85.21
2019-02-26T00:15:43.024Z,84.92
2019-02-26T00:16:42.842Z,85.21
2019-02-26T00:17:43.700Z,85.3
2019-02-26T00:18:38.439Z,85.11
2019-02-26T00:19:38.426Z,84.92
2019-02-26T00:20:41.465Z,84.98
2019-02-26T00:21:38.400Z,85.4
2019-02-26T00:22:41.214Z,85.64
2019-02-26T00:23:38.372Z,85.74
2019-02-26T00:24:42.684Z,85.36
2019-02-26T00:25:38.344Z,85.45
2019-02-26T00:26:40.767Z,85.45
2019-02-26T00:27:38.317Z,85.83
2019-02-26T00:28:41.378Z,85.93
2019-02-26T00:29:38.290Z,85.83
2019-02-26T00:30:42.461Z,85.55
2019-02-26T00:31:38.266Z,85.83
2019-02-26T00:32:40.616Z,85.64
2019-02-26T00:33:38.238Z,85.83
2019-02-26T00:34:41.144Z,85.83
2019-02-26T00:35:39.738Z,85.55
2019-02-26T00:36:38.891Z,85.45
2019-02-26T00:37:38.179Z,85.26
2019-02-26T00:38:42.209Z,85.74
2019-02-26T00:39:38.155Z,85.45
2019-02-26T00:40:40.980Z,85.17
2019-02-26T00:41:40.211Z,84.88
2019-02-26T00:42:38.492Z,84.98
2019-02-26T00:43:39.398Z,85.07
2019-02-26T00:44:39.779Z,85.07
2019-02-26T00:45:40.919Z,85.07
2019-02-26T00:46:41.382Z,84.88
2019-02-26T00:47:41.036Z,84.98
2019-02-26T00:48:41.419Z,85.17
2019-02-26T00:49:38.015Z,85.36
2019-02-26T00:50:39.886Z,85.07
2019-02-26T00:51:39.633Z,85.07
2019-02-26T00:52:41.446Z,85.07
2019-02-26T00:53:37.957Z,85.36
2019-02-26T00:54:39.038Z,85.07
2019-02-26T00:55:40.211Z,85.07
2019-02-26T00:56:41.079Z,85.17
2019-02-26T00:57:42.905Z,85.07
2019-02-26T00:58:42.319Z,85.36
2019-02-26T00:59:41.162Z,85.26
2019-02-26T01:00:37.962Z,85.36
2019-02-26T01:01:37.845Z,85.36
2019-02-26T01:02:37.831Z,85.45
2019-02-26T01:03:37.816Z,85.07
2019-02-26T01:04:39.043Z,85.07
2019-02-26T01:05:40.911Z,85.26
2019-02-26T01:06:37.775Z,84.98
2019-02-26T01:07:37.761Z,84.88
2019-02-26T01:08:42.427Z,85.17
2019-02-26T01:09:37.742Z,85.07
2019-02-26T01:10:42.045Z,85.26
2019-02-26T01:11:37.704Z,85.64
2019-02-26T01:12:40.792Z,85.26
2019-02-26T01:13:37.680Z,85.55
2019-02-26T01:14:39.140Z,85.83
2019-02-26T01:15:37.649Z,85.64
2019-02-26T01:16:41.170Z,85.17
2019-02-26T01:17:40.049Z,85.17
2019-02-26T01:18:37.607Z,85.26
2019-02-26T01:19:42.891Z,85.83
2019-02-26T01:20:37.583Z,85.93
2019-02-26T01:21:39.893Z,85.74
2019-02-26T01:22:40.229Z,85.64
2019-02-26T01:23:37.536Z,85.83
2019-02-26T01:24:37.523Z,86.11
2019-02-26T01:25:41.130Z,86.11
2019-02-26T01:26:37.497Z,86.02
2019-02-26T01:27:37.498Z,85.93
2019-02-26T01:28:39.541Z,85.83
2019-02-26T01:29:37.451Z,85.83
2019-02-26T01:30:38.681Z,85.83
2019-02-26T01:31:37.437Z,85.83
2019-02-26T01:32:37.411Z,85.93
2019-02-26T01:33:37.395Z,85.88
2019-02-26T01:34:38.263Z,86.55
2019-02-26T01:35:39.794Z,86.26
2019-02-26T01:36:38.213Z,86.07
2019-02-26T01:37:39.023Z,86.49
2019-02-26T01:38:43.790Z,86.45
2019-02-26T01:39:42.465Z,86.35
2019-02-26T01:40:39.354Z,86.26
2019-02-26T01:41:37.284Z,86.74
2019-02-26T01:42:37.267Z,86.55
2019-02-26T01:43:37.254Z,86.35
2019-02-26T01:44:40.366Z,86.93
2019-02-26T01:45:37.227Z,87.02
2019-02-26T01:46:41.046Z,86.83
2019-02-26T01:47:37.199Z,86.93
2019-02-26T01:48:41.139Z,86.74
2019-02-26T01:49:37.166Z,86.74
2019-02-26T01:50:40.578Z,86.55
2019-02-26T01:51:37.139Z,87.12
2019-02-26T01:52:37.125Z,87.3
2019-02-26T01:53:37.111Z,87.3
2019-02-26T01:54:39.652Z,87.12
2019-02-26T01:55:37.085Z,87.12
2019-02-26T01:56:39.389Z,87.4
2019-02-26T01:57:37.055Z,87.68
2019-02-26T01:58:37.041Z,87.4
2019-02-26T01:59:37.069Z,87.97
2019-02-26T02:00:38.640Z,87.97
2019-02-26T02:01:39.982Z,87.68
2019-02-26T02:02:36.982Z,87.87
2019-02-26T02:03:36.969Z,88.06
2019-02-26T02:04:41.565Z,88.25
2019-02-26T02:05:36.941Z,87.87
2019-02-26T02:06:39.550Z,88.06
2019-02-26T02:07:36.912Z,87.87
2019-02-26T02:08:39.269Z,88.06
2019-02-26T02:09:36.881Z,88.06
2019-02-26T02:10:36.874Z,87.97
2019-02-26T02:11:40.711Z,88.16
2019-02-26T02:12:41.264Z,88.16
2019-02-26T02:13:41.231Z,88.25
2019-02-26T02:14:36.811Z,88.25
2019-02-26T02:15:40.368Z,88.25
2019-02-26T02:16:36.778Z,88.54
2019-02-26T02:17:40.122Z,88.63
2019-02-26T02:18:36.749Z,88.44
2019-02-26T02:19:36.486Z,89.01
2019-02-26T02:20:36.723Z,88.63
2019-02-26T02:21:38.077Z,88.73
2019-02-26T02:22:39.926Z,88.73
2019-02-26T02:23:36.677Z,88.54
2019-02-26T02:24:43.605Z,88.35
2019-02-26T02:25:41.402Z,88.35
2019-02-26T02:26:37.453Z,88.35
2019-02-26T02:27:36.618Z,88.44
2019-02-26T02:28:38.068Z,88.63
2019-02-26T02:29:36.589Z,88.73
2019-02-26T02:30:39.080Z,88.92
2019-02-26T02:31:40.067Z,89.01
2019-02-26T02:32:36.952Z,89.2
2019-02-26T02:33:39.396Z,89.29
2019-02-26T02:34:42.870Z,89.11
2019-02-26T02:35:36.526Z,89.58
2019-02-26T02:36:36.487Z,89.29
2019-02-26T02:37:36.483Z,89.48
2019-02-26T02:38:39.021Z,89.48
2019-02-26T02:39:36.444Z,89.48
2019-02-26T02:40:37.998Z,89.67
2019-02-26T02:41:39.124Z,88.92
2019-02-26T02:42:40.147Z,89.58
2019-02-26T02:43:36.385Z,89.58
2019-02-26T02:44:36.372Z,90.05
2019-02-26T02:45:36.359Z,90.05
2019-02-26T02:46:39.743Z,90.05
2019-02-26T02:47:39.378Z,89.2
2019-02-26T02:48:36.315Z,89.39
2019-02-26T02:49:42.350Z,89.39
2019-02-26T02:50:36.286Z,89.48
2019-02-26T02:51:39.513Z,89.58
2019-02-26T02:52:39.725Z,89.48
2019-02-26T02:53:36.238Z,89.77
2019-02-26T02:54:38.413Z,89.58
2019-02-26T02:55:37.839Z,89.67
2019-02-26T02:56:41.678Z,89.96
2019-02-26T02:57:36.857Z,89.77
2019-02-26T02:58:38.383Z,89.67
2019-02-26T02:59:41.810Z,89.48
2019-02-26T03:00:36.939Z,89.58
2019-02-26T03:01:36.120Z,89.39
2019-02-26T03:02:42.734Z,89.67
2019-02-26T03:03:36.091Z,89.67
2019-02-26T03:04:37.215Z,89.67
2019-02-26T03:05:41.087Z,89.67
2019-02-26T03:06:40.355Z,90.24
2019-02-26T03:07:36.036Z,89.86
2019-02-26T03:08:36.019Z,90.34
2019-02-26T03:09:40.624Z,90.34
2019-02-26T03:10:40.294Z,90.34
2019-02-26T03:11:42.175Z,90.15
2019-02-26T03:12:35.959Z,90.24
2019-02-26T03:13:35.946Z,90.05
2019-02-26T03:14:39.046Z,90.15
2019-02-26T03:15:38.205Z,90.43
2019-02-26T03:16:35.904Z,90.62
2019-02-26T03:17:35.886Z,90.24
2019-02-26T03:18:35.872Z,90.43
2019-02-26T03:19:41.452Z,90.91
2019-02-26T03:20:42.116Z,90.91
2019-02-26T03:21:35.829Z,90.53
2019-02-26T03:22:41.542Z,90.53
2019-02-26T03:23:40.957Z,90.81
2019-02-26T03:24:38.047Z,90.81
2019-02-26T03:25:35.766Z,91.19
2019-02-26T03:26:35.760Z,91.28
2019-02-26T03:27:40.437Z,91
2019-02-26T03:28:41.797Z,91
2019-02-26T03:29:35.716Z,91.57
2019-02-26T03:30:44.107Z,91.19
2019-02-26T03:31:40.493Z,91.38
2019-02-26T03:32:41.198Z,91
2019-02-26T03:33:35.661Z,90.81
2019-02-26T03:34:35.648Z,90.53
2019-02-26T03:35:35.625Z,90.72
2019-02-26T03:36:39.851Z,91
2019-02-26T03:37:38.600Z,90.81
2019-02-26T03:38:35.579Z,90.81
2019-02-26T03:39:35.563Z,90.62
2019-02-26T03:40:38.481Z,90.53
2019-02-26T03:41:35.533Z,90.62
2019-02-26T03:42:38.879Z,90.43
2019-02-26T03:43:39.286Z,90.81
2019-02-26T03:44:35.492Z,90.81
2019-02-26T03:45:35.476Z,90.81
2019-02-26T03:46:35.463Z,90.53
2019-02-26T03:47:35.445Z,90.81
2019-02-26T03:48:35.432Z,90.62
2019-02-26T03:49:35.417Z,90.91
2019-02-26T03:50:35.400Z,91
2019-02-26T03:51:39.069Z,90.15
2019-02-26T03:52:35.376Z,90.53
2019-02-26T03:53:38.924Z,90.24
2019-02-26T03:54:37.040Z,90.15
2019-02-26T03:55:38.956Z,90.38
2019-02-26T03:56:35.313Z,90.38
2019-02-26T03:57:35.327Z,90.29
2019-02-26T03:58:35.290Z,90.1
2019-02-26T03:59:35.274Z,90.29
2019-02-26T04:00:40.944Z,90.19
2019-02-26T04:01:35.244Z,89.91
2019-02-26T04:02:37.159Z,89.72
2019-02-26T04:03:39.510Z,89.72
2019-02-26T04:04:36.151Z,89.72
2019-02-26T04:05:35.194Z,89.34
2019-02-26T04:06:38.967Z,89.81
2019-02-26T04:07:36.439Z,89.53
2019-02-26T04:08:35.164Z,89.53
2019-02-26T04:09:39.051Z,89.25
2019-02-26T04:10:35.118Z,89.34
2019-02-26T04:11:35.099Z,89.25
2019-02-26T04:12:41.770Z,90.29
2019-02-26T04:13:35.076Z,90
2019-02-26T04:14:35.081Z,89.62
2019-02-26T04:15:38.334Z,89.43
2019-02-26T04:16:38.442Z,89.25
2019-02-26T04:17:39.993Z,89.43
2019-02-26T04:18:37.246Z,89.53
2019-02-26T04:19:34.990Z,89.43
2019-02-26T04:20:34.979Z,89.43
2019-02-26T04:21:34.952Z,89.34
2019-02-26T04:22:34.941Z,90.29
2019-02-26T04:23:38.799Z,89.72
2019-02-26T04:24:38.417Z,89.81
2019-02-26T04:25:37.893Z,89.91
2019-02-26T04:26:37.571Z,89.43
2019-02-26T04:27:38.767Z,89.34
2019-02-26T04:28:39.329Z,89.72
2019-02-26T04:29:38.577Z,89.53
2019-02-26T04:30:39.661Z,89.43
2019-02-26T04:31:34.799Z,89.34
2019-02-26T04:32:36.239Z,89.43
2019-02-26T04:33:40.751Z,89.62
2019-02-26T04:34:34.519Z,89.43
2019-02-26T04:35:34.745Z,89.43
2019-02-26T04:36:39.126Z,89.43
2019-02-26T04:37:38.451Z,89.53
2019-02-26T04:38:34.700Z,89.34
2019-02-26T04:39:36.817Z,89.58
2019-02-26T04:40:38.193Z,89.25
2019-02-26T04:41:35.107Z,89.29
2019-02-26T04:42:38.232Z,88.91
2019-02-26T04:43:38.818Z,88.87
2019-02-26T04:44:36.742Z,89.25
2019-02-26T04:45:34.606Z,89.15
2019-02-26T04:46:39.461Z,89.29
2019-02-26T04:47:36.234Z,89.06
2019-02-26T04:48:36.668Z,88.96
2019-02-26T04:49:40.089Z,89.39
2019-02-26T04:50:38.601Z,89.1
2019-02-26T04:51:39.798Z,88.91
2019-02-26T04:52:40.087Z,89.1
2019-02-26T04:53:38.686Z,88.91
2019-02-26T04:54:39.418Z,88.91
2019-02-26T04:55:39.030Z,88.91
2019-02-26T04:56:39.990Z,89.1
2019-02-26T04:57:34.437Z,89.29
2019-02-26T04:58:37.192Z,89.2
2019-02-26T04:59:38.565Z,89
2019-02-26T05:00:38.701Z,89.1
2019-02-26T05:01:36.960Z,88.81
2019-02-26T05:02:34.376Z,88.53
2019-02-26T05:03:34.354Z,88.53
2019-02-26T05:04:39.353Z,88.43
2019-02-26T05:05:39.262Z,88.53
2019-02-26T05:06:34.314Z,88.62
2019-02-26T05:07:36.109Z,88.53
2019-02-26T05:08:38.271Z,88.81
2019-02-26T05:09:37.585Z,88.43
2019-02-26T05:10:36.657Z,88.53
2019-02-26T05:11:40.684Z,88.43
2019-02-26T05:12:40.123Z,88.53
2019-02-26T05:13:36.569Z,88.53
2019-02-26T05:14:34.226Z,88.53
2019-02-26T05:15:35.670Z,88.72
2019-02-26T05:16:40.285Z,88.91
2019-02-26T05:17:35.741Z,88.43
2019-02-26T05:18:36.854Z,88.43
2019-02-26T05:19:36.256Z,88.43
2019-02-26T05:20:37.412Z,88.34
2019-02-26T05:21:37.983Z,88.72
2019-02-26T05:22:35.854Z,88.53
2019-02-26T05:23:36.053Z,88.72
2019-02-26T05:24:34.065Z,88.43
2019-02-26T05:25:39.266Z,88.62
2019-02-26T05:26:34.051Z,88.43
2019-02-26T05:27:36.112Z,88.53
2019-02-26T05:28:40.812Z,88.72
2019-02-26T05:29:33.996Z,88.53
2019-02-26T05:30:33.994Z,88.62
2019-02-26T05:31:37.731Z,88.72
2019-02-26T05:32:37.383Z,88.62
2019-02-26T05:33:35.242Z,88.53
2019-02-26T05:34:33.928Z,88.53
2019-02-26T05:35:33.919Z,88.62
2019-02-26T05:36:39.544Z,88.72
2019-02-26T05:37:40.338Z,88.81
2019-02-26T05:38:37.633Z,88.81
2019-02-26T05:39:33.860Z,88.53
2019-02-26T05:40:37.396Z,88.81
2019-02-26T05:41:33.832Z,88.91
2019-02-26T05:42:33.829Z,88.53
2019-02-26T05:43:36.342Z,88.81
2019-02-26T05:44:33.793Z,88.91
2019-02-26T05:45:37.350Z,88.81
2019-02-26T05:46:33.764Z,88.91
2019-02-26T05:47:33.762Z,88.81
2019-02-26T05:48:33.736Z,88.34
2019-02-26T05:49:38.354Z,88.81
2019-02-26T05:50:38.427Z,88.53
2019-02-26T05:51:38.017Z,88.81
2019-02-26T05:52:36.026Z,88.53
2019-02-26T05:53:33.431Z,88.53
2019-02-26T05:54:33.663Z,88.53
2019-02-26T05:55:33.642Z,88.34
2019-02-26T05:56:34.044Z,88.53
2019-02-26T05:57:35.078Z,88.43
2019-02-26T05:58:36.862Z,88.43
2019-02-26T05:59:33.605Z,88.53
2019-02-26T06:00:35.764Z,88.72
2019-02-26T06:01:33.562Z,88.53
2019-02-26T06:02:33.548Z,88.53
2019-02-26T06:03:33.535Z,89.1
2019-02-26T06:04:35.689Z,88.72
2019-02-26T06:05:33.506Z,89.1
2019-02-26T06:06:33.622Z,88.91
2019-02-26T06:07:38.558Z,89.2
2019-02-26T06:08:38.487Z,89.48
2019-02-26T06:09:36.244Z,89.58
2019-02-26T06:10:35.033Z,89.39
2019-02-26T06:11:39.068Z,89.86
2019-02-26T06:12:38.124Z,89.95
2019-02-26T06:13:37.223Z,89.95
2019-02-26T06:14:38.653Z,90.33
2019-02-26T06:15:36.322Z,89.48
2019-02-26T06:16:33.965Z,89.58
2019-02-26T06:17:35.182Z,89.58
2019-02-26T06:18:33.335Z,89.48
2019-02-26T06:19:40.048Z,89.76
2019-02-26T06:20:36.722Z,89.48
2019-02-26T06:21:33.300Z,89.86
2019-02-26T06:22:34.650Z,89.76
2019-02-26T06:23:37.251Z,89.76
2019-02-26T06:24:37.885Z,89.48
2019-02-26T06:25:33.331Z,89.86
2019-02-26T06:26:38.760Z,89.95
2019-02-26T06:27:33.209Z,90.52
2019-02-26T06:28:38.411Z,90.33
2019-02-26T06:29:37.393Z,90.24
2019-02-26T06:30:33.167Z,90.33
2019-02-26T06:31:33.156Z,90.52
2019-02-26T06:32:39.121Z,89.95
2019-02-26T06:33:38.379Z,90.24
2019-02-26T06:34:33.119Z,90.43
2019-02-26T06:35:35.974Z,90.43
2019-02-26T06:36:33.087Z,90.43
2019-02-26T06:37:37.346Z,90.14
2019-02-26T06:38:35.598Z,90.52
2019-02-26T06:39:36.245Z,90.05
2019-02-26T06:40:39.207Z,90.33
2019-02-26T06:41:33.019Z,89.95
2019-02-26T06:42:36.055Z,90.14
2019-02-26T06:43:35.387Z,90.14
2019-02-26T06:44:32.982Z,90.05
2019-02-26T06:45:32.965Z,89.95
2019-02-26T06:46:38.274Z,90.38
2019-02-26T06:47:35.256Z,90.19
2019-02-26T06:48:34.733Z,89.81
2019-02-26T06:49:32.919Z,89.62
2019-02-26T06:50:36.718Z,89.53
2019-02-26T06:51:33.233Z,88.86
2019-02-26T06:52:39.853Z,89.33
2019-02-26T06:53:32.868Z,88.86
2019-02-26T06:54:34.224Z,88.48
2019-02-26T06:55:32.838Z,88.76
2019-02-26T06:56:41.342Z,88.95
2019-02-26T06:57:32.817Z,88.57
2019-02-26T06:58:32.798Z,88.86
2019-02-26T06:59:36.899Z,88.57
2019-02-26T07:00:32.773Z,88.62
2019-02-26T07:01:35.721Z,88.24
2019-02-26T07:02:32.748Z,88.05
2019-02-26T07:03:32.748Z,88.05
2019-02-26T07:04:32.722Z,87.86
2019-02-26T07:05:32.710Z,87.86
2019-02-26T07:06:35.488Z,87.76
2019-02-26T07:07:32.696Z,88.24
2019-02-26T07:08:33.438Z,87.95
2019-02-26T07:09:36.695Z,87.95
2019-02-26T07:10:34.137Z,87.86
2019-02-26T07:11:37.457Z,87.19
2019-02-26T07:12:32.624Z,87.38
2019-02-26T07:13:33.847Z,86.86
2019-02-26T07:14:36.492Z,86.47
2019-02-26T07:15:32.590Z,86.57
2019-02-26T07:16:32.578Z,86
2019-02-26T07:17:38.334Z,85.81
2019-02-26T07:18:32.553Z,85.62
2019-02-26T07:19:35.741Z,85.15
2019-02-26T07:20:39.352Z,85.57
2019-02-26T07:21:32.515Z,85.1
2019-02-26T07:22:32.507Z,85.38
2019-02-26T07:23:37.532Z,84.62
2019-02-26T07:24:32.480Z,84.43
2019-02-26T07:25:36.946Z,84.14
2019-02-26T07:26:32.455Z,83.76
2019-02-26T07:27:36.519Z,83
2019-02-26T07:28:32.435Z,83.29
2019-02-26T07:29:39.437Z,83.39
2019-02-26T07:30:32.576Z,82.62
2019-02-26T07:31:35.489Z,82.95
2019-02-26T07:32:32.391Z,82.19
2019-02-26T07:33:36.955Z,82.57
2019-02-26T07:34:32.370Z,81.81
2019-02-26T07:35:35.446Z,81.81
2019-02-26T07:36:32.341Z,82
2019-02-26T07:37:36.159Z,82
2019-02-26T07:38:40.776Z,81.43
2019-02-26T07:39:32.309Z,81.24
2019-02-26T07:40:35.345Z,80.76
2019-02-26T07:41:32.818Z,80.71
2019-02-26T07:42:37.207Z,80.33
2019-02-26T07:43:32.274Z,80.04
2019-02-26T07:44:32.257Z,79.85
2019-02-26T07:45:34.585Z,79.75
2019-02-26T07:46:33.629Z,79.09
2019-02-26T07:47:36.284Z,79.57
2019-02-26T07:48:34.224Z,78.99
2019-02-26T07:49:32.202Z,79.19
2019-02-26T07:50:39.729Z,79.85
2019-02-26T07:51:38.030Z,78.9
2019-02-26T07:52:35.090Z,79.09
2019-02-26T07:53:32.159Z,79.19
2019-02-26T07:54:32.149Z,79.28
2019-02-26T07:55:35.806Z,79.09
2019-02-26T07:56:34.972Z,78.9
2019-02-26T07:57:32.121Z,78.37
2019-02-26T07:58:35.945Z,78.65
2019-02-26T07:59:36.807Z,77.61
2019-02-26T08:00:37.159Z,77.61
2019-02-26T08:01:32.085Z,77.61
2019-02-26T08:02:34.993Z,77.32
2019-02-26T08:03:32.067Z,77.13
2019-02-26T08:04:36.335Z,77.13
2019-02-26T08:05:32.047Z,77.03
2019-02-26T08:06:36.131Z,76.84
2019-02-26T08:07:33.231Z,77.03
2019-02-26T08:08:32.020Z,77.13
2019-02-26T08:09:32.009Z,76.75
2019-02-26T08:10:35.079Z,77.03
2019-02-26T08:11:31.989Z,77.13
2019-02-26T08:12:36.160Z,76.56
2019-02-26T08:13:36.380Z,76.46
2019-02-26T08:14:31.962Z,76.31
2019-02-26T08:15:35.216Z,76.59
2019-02-26T08:16:32.478Z,76.69
2019-02-26T08:17:31.934Z,76.03
2019-02-26T08:18:31.925Z,75.84
2019-02-26T08:19:34.412Z,75.74
2019-02-26T08:20:35.588Z,76.12
2019-02-26T08:21:32.161Z,75.26
2019-02-26T08:22:36.237Z,75.07
2019-02-26T08:23:31.882Z,75.26
2019-02-26T08:24:31.869Z,75.45
2019-02-26T08:25:31.860Z,75.55
2019-02-26T08:26:31.853Z,74.98
2019-02-26T08:27:35.565Z,74.88
2019-02-26T08:28:31.834Z,75.16
2019-02-26T08:29:36.106Z,75.36
2019-02-26T08:30:31.818Z,75.36
2019-02-26T08:31:31.808Z,75.07
2019-02-26T08:32:32.925Z,75.45
2019-02-26T08:33:31.787Z,75.26
2019-02-26T08:34:31.786Z,75.26
2019-02-26T08:35:31.778Z,75.93
2019-02-26T08:36:31.760Z,75.84
2019-02-26T08:37:31.750Z,76.21
2019-02-26T08:38:32.647Z,76.21
2019-02-26T08:39:31.737Z,75.93
2019-02-26T08:40:31.734Z,76.12
2019-02-26T08:41:31.718Z,76.21
2019-02-26T08:42:31.708Z,75.45
2019-02-26T08:43:31.701Z,75.55
2019-02-26T08:44:31.688Z,75.74
2019-02-26T08:45:33.500Z,76.12
2019-02-26T08:46:31.668Z,76.03
2019-02-26T08:47:31.662Z,76.12
2019-02-26T08:48:31.655Z,76.03
2019-02-26T08:49:31.640Z,75.93
2019-02-26T08:50:36.145Z,76.4
2019-02-26T08:51:31.623Z,76.59
2019-02-26T08:52:31.879Z,75.93
2019-02-26T08:53:33.882Z,76.03
2019-02-26T08:54:35.771Z,76.06
2019-02-26T08:55:31.344Z,75.68
2019-02-26T08:56:36.781Z,75.3
2019-02-26T08:57:31.595Z,74.92
2019-02-26T08:58:31.559Z,75.49
2019-02-26T08:59:31.551Z,75.49
2019-02-26T09:00:31.542Z,75.78
2019-02-26T09:01:31.540Z,75.3
2019-02-26T09:02:31.524Z,75.4
2019-02-26T09:03:40.282Z,74.96
2019-02-26T09:04:31.512Z,75.05
2019-02-26T09:05:36.784Z,74.86
2019-02-26T09:06:31.489Z,74.57
2019-02-26T09:07:31.482Z,74.77
2019-02-26T09:08:35.531Z,73.47
2019-02-26T09:09:33.393Z,72.71
2019-02-26T09:10:31.461Z,71.94
2019-02-26T09:11:36.270Z,72.71
2019-02-26T09:12:31.441Z,72.42
2019-02-26T09:13:36.104Z,71.94
2019-02-26T09:14:37.416Z,71.94
2019-02-26T09:15:35.901Z,71.98
2019-02-26T09:16:33.222Z,71.41
2019-02-26T09:17:34.759Z,71.41
2019-02-26T09:18:37.566Z,71.41
2019-02-26T09:19:35.372Z,71.31
2019-02-26T09:20:31.380Z,71.41
2019-02-26T09:21:31.681Z,71.31
2019-02-26T09:22:31.362Z,71.31
2019-02-26T09:23:33.389Z,71.31
2019-02-26T09:24:31.350Z,70.83
2019-02-26T09:25:34.028Z,71.21
2019-02-26T09:26:31.330Z,70.92
2019-02-26T09:27:34.463Z,71.25
2019-02-26T09:28:32.631Z,71.21
2019-02-26T09:29:31.606Z,70.58
2019-02-26T09:30:36.623Z,70.67
2019-02-26T09:31:31.295Z,70.87
2019-02-26T09:32:32.635Z,70.29
2019-02-26T09:33:36.123Z,70.1
2019-02-26T09:34:34.789Z,70.1
2019-02-26T09:35:33.697Z,70.1
2019-02-26T09:36:49.015Z,69.91
2019-02-26T09:37:31.250Z,70.01
2019-02-26T09:38:31.242Z,69.56
2019-02-26T09:39:34.157Z,69.76
2019-02-26T09:40:34.926Z,69.09
2019-02-26T09:41:33.132Z,68.9
2019-02-26T09:42:32.912Z,69.09
2019-02-26T09:43:31.211Z,69.18
2019-02-26T09:44:35.644Z,69.37
2019-02-26T09:45:32.597Z,68.7
2019-02-26T09:46:34.131Z,68.61
2019-02-26T09:47:33.943Z,68.41
2019-02-26T09:48:31.167Z,68.41
2019-02-26T09:49:35.702Z,67.94
2019-02-26T09:50:31.410Z,67.75
2019-02-26T09:51:35.071Z,67.94
2019-02-26T09:52:34.486Z,68.07
2019-02-26T09:53:31.132Z,67.3
2019-02-26T09:54:30.882Z,67.49
2019-02-26T09:55:31.121Z,67.4
2019-02-26T09:56:31.115Z,66.83
2019-02-26T09:57:31.105Z,66.73
2019-02-26T09:58:31.097Z,66.73
2019-02-26T09:59:35.443Z,66.35
2019-02-26T10:00:32.029Z,66.25
2019-02-26T10:01:35.024Z,66.35
2019-02-26T10:02:31.294Z,66.35
2019-02-26T10:03:36.668Z,66.16
2019-02-26T10:04:31.881Z,66.25
2019-02-26T10:05:31.050Z,66.35
2019-02-26T10:06:31.046Z,66.35
2019-02-26T10:07:36.034Z,65.68
2019-02-26T10:08:32.984Z,65.48
2019-02-26T10:09:32.752Z,65.68
2019-02-26T10:10:37.477Z,65.68
2019-02-26T10:11:31.016Z,65.87
2019-02-26T10:12:34.536Z,65.58
2019-02-26T10:13:30.997Z,65.58
2019-02-26T10:14:33.850Z,65.48
2019-02-26T10:15:32.236Z,65.58
2019-02-26T10:16:33.572Z,65.87
2019-02-26T10:17:33.239Z,65.68
2019-02-26T10:18:33.272Z,65.2
2019-02-26T10:19:33.678Z,64.82
2019-02-26T10:20:34.126Z,64.82
2019-02-26T10:21:32.862Z,65.2
2019-02-26T10:22:36.110Z,64.91
2019-02-26T10:23:35.017Z,65.2
2019-02-26T10:24:35.347Z,64.95
2019-02-26T10:25:35.465Z,64.75
2019-02-26T10:26:35.932Z,65.23
2019-02-26T10:27:38.267Z,65.14
2019-02-26T10:28:35.124Z,65.26
2019-02-26T10:29:32.354Z,64.98
2019-02-26T10:30:38.347Z,64.31
2019-02-26T10:31:30.882Z,64.31
2019-02-26T10:32:32.719Z,64.02
2019-02-26T10:33:31.545Z,63.64
2019-02-26T10:34:32.753Z,63.35
2019-02-26T10:35:36.617Z,62.97
2019-02-26T10:36:39.010Z,62.97
2019-02-26T10:37:36.082Z,63.06
2019-02-26T10:38:35.991Z,62.97
2019-02-26T10:39:32.106Z,62.97
2019-02-26T10:40:50.435Z,63.06
2019-02-26T10:41:30.826Z,63.35
2019-02-26T10:42:39.565Z,63.06
2019-02-26T10:43:30.821Z,63.35
2019-02-26T10:44:30.838Z,62.87
2019-02-26T10:45:30.804Z,62.59
2019-02-26T10:46:34.591Z,61.72
2019-02-26T10:47:34.631Z,62.11
2019-02-26T10:48:30.815Z,62.49
2019-02-26T10:49:31.193Z,62.87
2019-02-26T10:50:36.667Z,63.16
2019-02-26T10:51:30.768Z,63.64
2019-02-26T10:52:31.213Z,62.87
2019-02-26T10:53:30.764Z,62.87
2019-02-26T10:54:37.403Z,62.77
2019-02-26T10:55:41.745Z,63.16
2019-02-26T10:56:36.688Z,62.11
2019-02-26T10:57:33.491Z,63.1
2019-02-26T10:58:30.732Z,62.14
2019-02-26T10:59:30.723Z,62.23
2019-02-26T11:00:37.730Z,62.43
2019-02-26T11:01:33.731Z,62.43
2019-02-26T11:02:30.707Z,62.33
2019-02-26T11:03:35.293Z,62.43
2019-02-26T11:04:40.970Z,61.85
2019-02-26T11:05:30.703Z,61.85
2019-02-26T11:06:35.231Z,62.14
2019-02-26T11:07:34.507Z,62.14
2019-02-26T11:08:34.896Z,62.04
2019-02-26T11:09:34.164Z,61.76
2019-02-26T11:10:30.706Z,61.85
2019-02-26T11:11:34.762Z,62.14
2019-02-26T11:12:36.196Z,61.94
2019-02-26T11:13:30.648Z,61.94
2019-02-26T11:14:31.589Z,62.43
2019-02-26T11:15:36.045Z,61.94
2019-02-26T11:16:35.723Z,61.79
2019-02-26T11:17:33.499Z,61.79
2019-02-26T11:18:30.629Z,61.79
2019-02-26T11:19:38.805Z,61.21
2019-02-26T11:20:34.144Z,61.31
2019-02-26T11:21:30.637Z,61.02
2019-02-26T11:22:30.601Z,61.11
2019-02-26T11:23:34.567Z,61.21
2019-02-26T11:24:35.636Z,61.88
2019-02-26T11:25:30.602Z,61.4
2019-02-26T11:26:35.177Z,61.6
2019-02-26T11:27:30.576Z,61.02
2019-02-26T11:28:37.834Z,61.05
2019-02-26T11:29:34.051Z,61.15
2019-02-26T11:30:34.328Z,61.05
2019-02-26T11:31:30.554Z,60.67
2019-02-26T11:32:33.277Z,60.57
2019-02-26T11:33:30.675Z,60.76
2019-02-26T11:34:36.181Z,60.67
2019-02-26T11:35:30.537Z,60.86
2019-02-26T11:36:36.439Z,60.67
2019-02-26T11:37:32.526Z,60.86
2019-02-26T11:38:30.280Z,60.38
2019-02-26T11:39:30.520Z,60.09
2019-02-26T11:40:33.073Z,60.28
2019-02-26T11:41:35.442Z,60.28
2019-02-26T11:42:31.143Z,60.67
2019-02-26T11:43:31.361Z,60.28
2019-02-26T11:44:30.506Z,60.47
2019-02-26T11:45:32.688Z,60.28
2019-02-26T11:46:34.449Z,60.28
2019-02-26T11:47:32.288Z,60.28
2019-02-26T11:48:33.313Z,60.73
2019-02-26T11:49:31.091Z,61.02
2019-02-26T11:50:30.917Z,60.73
2019-02-26T11:51:41.784Z,60.73
2019-02-26T11:52:30.462Z,60.93
2019-02-26T11:53:32.647Z,60.67
2019-02-26T11:54:37.119Z,60.76
2019-02-26T11:55:36.898Z,60.86
2019-02-26T11:56:30.439Z,60.67
2019-02-26T11:57:37.127Z,60.86
2019-02-26T11:58:30.428Z,60.83
2019-02-26T11:59:31.463Z,61.15
2019-02-26T12:00:39.164Z,61.15
2019-02-26T12:01:34.402Z,60.76
2019-02-26T12:02:36.853Z,60.76
2019-02-26T12:03:36.866Z,61.15
2019-02-26T12:04:30.418Z,60.86
2019-02-26T12:05:38.311Z,60.96
2019-02-26T12:06:30.392Z,60.73
2019-02-26T12:07:34.391Z,61.02
2019-02-26T12:08:30.383Z,61.31
2019-02-26T12:09:35.608Z,61.6
2019-02-26T12:10:35.811Z,61.79
2019-02-26T12:11:30.366Z,62.07
2019-02-26T12:12:34.120Z,62.26
2019-02-26T12:13:30.360Z,61.31
2019-02-26T12:14:30.351Z,61.98
2019-02-26T12:15:35.683Z,62.55
2019-02-26T12:16:30.962Z,62.65
2019-02-26T12:17:30.337Z,62.17
2019-02-26T12:18:30.335Z,62.36
2019-02-26T12:19:34.373Z,62.07
2019-02-26T12:20:30.323Z,61.98
2019-02-26T12:22:47.880Z,62.65
2019-02-26T12:23:46.768Z,62.84
2019-02-26T12:24:43.567Z,63.22
2019-02-26T12:25:43.393Z,62.74
2019-02-26T12:26:47.379Z,62.65
2019-02-26T12:27:47.901Z,62.55
2019-02-26T12:28:44.046Z,62.9
2019-02-26T12:29:48.264Z,63.39
2019-02-26T12:30:46.805Z,63.13
2019-02-26T12:31:43.367Z,63.32
2019-02-26T12:32:46.889Z,63.51
2019-02-26T12:33:43.356Z,63.13
2019-02-26T12:34:48.319Z,63.22
2019-02-26T12:35:46.029Z,62.93
2019-02-26T12:36:43.337Z,62.84
2019-02-26T12:37:43.341Z,63.13
2019-02-26T12:38:43.465Z,63.03
2019-02-26T12:39:47.316Z,63.13
2019-02-26T12:42:46.256Z,62.74
2019-02-26T12:42:56.080Z,62.55
2019-02-26T12:43:59.284Z,62.93
2019-02-26T12:44:57.423Z,63.32
2019-02-26T12:46:01.249Z,63.42
2019-02-26T12:47:00.342Z,63.03
2019-02-26T12:47:57.684Z,63.8
2019-02-26T12:48:56.043Z,63.13
2019-02-26T12:49:56.675Z,63.6
2019-02-26T12:51:01.323Z,63.51
2019-02-26T12:51:59.811Z,63.51
2019-02-26T12:52:57.333Z,63.51
2019-02-26T12:53:56.017Z,63.51
2019-02-26T12:55:00.459Z,63.51
2019-02-26T12:55:59.859Z,63.51
2019-02-26T12:57:00.530Z,63.6
2019-02-26T12:57:59.670Z,63.13